sensor_id;sensor_type;location;lat;lon;timestamp;temperature;humidity
4820;DHT22;2424;49.696;6.630;2023-07-29T00:04:34;19.30;99.90
4820;DHT22;2424;49.696;6.630;2023-07-29T00:09:56;19.30;99.90
4820;DHT22;2424;49.696;6.630;2023-07-29T00:15:19;19.30;99.90
4820;DHT22;2424;49.696;6.630;2023-07-29T00:20:42;19.30;99.90
4820;DHT22;2424;49.696;6.630;2023-07-29T00:26:04;19.30;99.90
4820;DHT22;2424;49.696;6.630;2023-07-29T00:31:26;19.40;99.90
4820;DHT22;2424;49.696;6.630;2023-07-29T00:36:50;19.30;99.90
4820;DHT22;2424;49.696;6.630;2023-07-29T00:42:12;19.40;99.90
4820;DHT22;2424;49.696;6.630;2023-07-29T00:47:34;19.40;99.90
4820;DHT22;2424;49.696;6.630;2023-07-29T00:52:57;19.40;99.90
4820;DHT22;2424;49.696;6.630;2023-07-29T00:58:19;19.40;99.90
4820;DHT22;2424;49.696;6.630;2023-07-29T01:03:41;19.40;99.90
4820;DHT22;2424;49.696;6.630;2023-07-29T01:09:11;19.40;99.90
4820;DHT22;2424;49.696;6.630;2023-07-29T01:14:40;19.40;99.90
4820;DHT22;2424;49.696;6.630;2023-07-29T01:20:07;19.40;99.90
4820;DHT22;2424;49.696;6.630;2023-07-29T01:25:31;19.40;99.90
4820;DHT22;2424;49.696;6.630;2023-07-29T01:30:58;19.40;99.90
4820;DHT22;2424;49.696;6.630;2023-07-29T01:36:26;19.40;99.90
4820;DHT22;2424;49.696;6.630;2023-07-29T01:41:51;19.30;99.90
4820;DHT22;2424;49.696;6.630;2023-07-29T01:47:13;19.30;99.90
4820;DHT22;2424;49.696;6.630;2023-07-29T01:52:35;19.30;99.90
4820;DHT22;2424;49.696;6.630;2023-07-29T01:57:58;19.30;99.90
4820;DHT22;2424;49.696;6.630;2023-07-29T02:03:20;19.40;99.90
4820;DHT22;2424;49.696;6.630;2023-07-29T02:08:42;19.40;99.90
4820;DHT22;2424;49.696;6.630;2023-07-29T02:14:05;19.40;99.90
4820;DHT22;2424;49.696;6.630;2023-07-29T02:19:27;19.50;99.90
4820;DHT22;2424;49.696;6.630;2023-07-29T02:24:49;19.40;99.90
4820;DHT22;2424;49.696;6.630;2023-07-29T02:30:13;19.40;99.90
4820;DHT22;2424;49.696;6.630;2023-07-29T02:35:35;19.50;99.90
4820;DHT22;2424;49.696;6.630;2023-07-29T02:40:57;19.50;99.90
4820;DHT22;2424;49.696;6.630;2023-07-29T02:46:20;19.50;99.90
4820;DHT22;2424;49.696;6.630;2023-07-29T02:51:42;19.50;99.90
4820;DHT22;2424;49.696;6.630;2023-07-29T02:57:04;19.40;99.90
4820;DHT22;2424;49.696;6.630;2023-07-29T03:02:27;19.40;99.90
4820;DHT22;2424;49.696;6.630;2023-07-29T03:07:49;19.40;99.90
4820;DHT22;2424;49.696;6.630;2023-07-29T03:13:11;19.50;99.90
4820;DHT22;2424;49.696;6.630;2023-07-29T03:18:35;19.40;99.90
4820;DHT22;2424;49.696;6.630;2023-07-29T03:23:57;19.50;99.90
4820;DHT22;2424;49.696;6.630;2023-07-29T03:29:19;19.50;99.90
4820;DHT22;2424;49.696;6.630;2023-07-29T03:34:42;19.50;99.90
4820;DHT22;2424;49.696;6.630;2023-07-29T03:40:06;19.50;99.90
4820;DHT22;2424;49.696;6.630;2023-07-29T03:45:29;19.40;99.90
4820;DHT22;2424;49.696;6.630;2023-07-29T03:50:53;19.40;99.90
4820;DHT22;2424;49.696;6.630;2023-07-29T03:56:16;19.20;99.90
4820;DHT22;2424;49.696;6.630;2023-07-29T04:01:38;19.10;99.90
4820;DHT22;2424;49.696;6.630;2023-07-29T04:07:01;19.00;99.90
4820;DHT22;2424;49.696;6.630;2023-07-29T04:12:23;18.80;99.90
4820;DHT22;2424;49.696;6.630;2023-07-29T04:17:45;18.80;99.90
4820;DHT22;2424;49.696;6.630;2023-07-29T04:23:09;18.70;99.90
4820;DHT22;2424;49.696;6.630;2023-07-29T04:28:31;18.70;99.90
4820;DHT22;2424;49.696;6.630;2023-07-29T04:33:53;18.60;99.90
4820;DHT22;2424;49.696;6.630;2023-07-29T04:39:16;18.50;99.90
4820;DHT22;2424;49.696;6.630;2023-07-29T04:44:38;18.50;99.90
4820;DHT22;2424;49.696;6.630;2023-07-29T04:50:02;18.50;99.90
4820;DHT22;2424;49.696;6.630;2023-07-29T04:55:26;18.40;99.90
4820;DHT22;2424;49.696;6.630;2023-07-29T05:00:48;18.40;99.90
4820;DHT22;2424;49.696;6.630;2023-07-29T05:06:09;18.40;99.90
4820;DHT22;2424;49.696;6.630;2023-07-29T05:11:33;18.40;99.90
4820;DHT22;2424;49.696;6.630;2023-07-29T05:16:55;18.40;99.90
4820;DHT22;2424;49.696;6.630;2023-07-29T05:22:17;18.30;99.90
4820;DHT22;2424;49.696;6.630;2023-07-29T05:27:40;18.30;99.90
4820;DHT22;2424;49.696;6.630;2023-07-29T05:33:02;18.30;99.90
4820;DHT22;2424;49.696;6.630;2023-07-29T05:38:25;18.30;99.90
4820;DHT22;2424;49.696;6.630;2023-07-29T05:43:49;18.20;99.90
4820;DHT22;2424;49.696;6.630;2023-07-29T05:49:11;18.30;99.90
4820;DHT22;2424;49.696;6.630;2023-07-29T05:54:33;18.30;99.90
4820;DHT22;2424;49.696;6.630;2023-07-29T05:59:56;18.30;99.90
4820;DHT22;2424;49.696;6.630;2023-07-29T06:05:18;18.30;99.90
4820;DHT22;2424;49.696;6.630;2023-07-29T06:10:40;18.40;99.90
4820;DHT22;2424;49.696;6.630;2023-07-29T06:16:03;18.50;99.90
4820;DHT22;2424;49.696;6.630;2023-07-29T06:21:25;18.40;99.90
4820;DHT22;2424;49.696;6.630;2023-07-29T06:26:49;18.50;99.90
4820;DHT22;2424;49.696;6.630;2023-07-29T06:32:12;18.50;99.90
4820;DHT22;2424;49.696;6.630;2023-07-29T06:37:34;18.50;99.90
4820;DHT22;2424;49.696;6.630;2023-07-29T06:42:56;18.50;99.90
4820;DHT22;2424;49.696;6.630;2023-07-29T06:48:20;18.50;99.90
4820;DHT22;2424;49.696;6.630;2023-07-29T06:53:44;18.60;99.90
4820;DHT22;2424;49.696;6.630;2023-07-29T06:59:06;18.60;99.90
4820;DHT22;2424;49.696;6.630;2023-07-29T07:04:30;18.70;99.90
4820;DHT22;2424;49.696;6.630;2023-07-29T07:09:52;18.80;99.90
4820;DHT22;2424;49.696;6.630;2023-07-29T07:15:14;18.90;99.90
4820;DHT22;2424;49.696;6.630;2023-07-29T07:20:37;18.80;99.90
4820;DHT22;2424;49.696;6.630;2023-07-29T07:25:59;18.80;99.90
4820;DHT22;2424;49.696;6.630;2023-07-29T07:31:21;18.70;99.90
4820;DHT22;2424;49.696;6.630;2023-07-29T07:36:45;18.80;99.90
4820;DHT22;2424;49.696;6.630;2023-07-29T07:42:07;18.80;99.90
4820;DHT22;2424;49.696;6.630;2023-07-29T07:47:29;18.90;99.90
4820;DHT22;2424;49.696;6.630;2023-07-29T07:52:52;19.00;99.90
4820;DHT22;2424;49.696;6.630;2023-07-29T07:58:14;19.10;99.90
4820;DHT22;2424;49.696;6.630;2023-07-29T08:03:36;19.30;99.90
4820;DHT22;2424;49.696;6.630;2023-07-29T08:09:00;19.40;99.90
4820;DHT22;2424;49.696;6.630;2023-07-29T08:14:22;19.40;99.90
4820;DHT22;2424;49.696;6.630;2023-07-29T08:19:44;19.50;99.90
4820;DHT22;2424;49.696;6.630;2023-07-29T08:25:08;19.50;99.90
4820;DHT22;2424;49.696;6.630;2023-07-29T08:30:30;19.70;99.90
4820;DHT22;2424;49.696;6.630;2023-07-29T08:35:52;19.70;99.90
4820;DHT22;2424;49.696;6.630;2023-07-29T08:41:19;19.80;99.90
4820;DHT22;2424;49.696;6.630;2023-07-29T08:46:42;19.60;99.90
4820;DHT22;2424;49.696;6.630;2023-07-29T08:52:05;19.70;99.90
4820;DHT22;2424;49.696;6.630;2023-07-29T08:57:29;19.70;99.90
4820;DHT22;2424;49.696;6.630;2023-07-29T09:02:52;19.70;99.90
4820;DHT22;2424;49.696;6.630;2023-07-29T09:08:14;20.00;99.90
4820;DHT22;2424;49.696;6.630;2023-07-29T09:13:37;20.20;99.90
4820;DHT22;2424;49.696;6.630;2023-07-29T09:19:01;20.40;99.90
4820;DHT22;2424;49.696;6.630;2023-07-29T09:24:23;20.20;99.90
4820;DHT22;2424;49.696;6.630;2023-07-29T09:29:47;20.30;99.90
4820;DHT22;2424;49.696;6.630;2023-07-29T09:35:10;20.50;99.90
4820;DHT22;2424;49.696;6.630;2023-07-29T09:40:36;20.80;99.90
4820;DHT22;2424;49.696;6.630;2023-07-29T09:46:01;21.10;99.90
4820;DHT22;2424;49.696;6.630;2023-07-29T09:51:24;21.20;99.90
4820;DHT22;2424;49.696;6.630;2023-07-29T09:56:47;21.10;99.90
4820;DHT22;2424;49.696;6.630;2023-07-29T10:02:16;21.20;99.90
4820;DHT22;2424;49.696;6.630;2023-07-29T10:07:39;21.30;99.90
4820;DHT22;2424;49.696;6.630;2023-07-29T10:13:01;21.10;99.90
4820;DHT22;2424;49.696;6.630;2023-07-29T10:18:26;21.40;99.90
4820;DHT22;2424;49.696;6.630;2023-07-29T10:23:53;21.50;99.90
4820;DHT22;2424;49.696;6.630;2023-07-29T10:29:19;21.70;99.90
4820;DHT22;2424;49.696;6.630;2023-07-29T10:34:43;21.70;99.90
4820;DHT22;2424;49.696;6.630;2023-07-29T10:40:07;21.60;99.90
4820;DHT22;2424;49.696;6.630;2023-07-29T10:45:36;21.70;99.90
4820;DHT22;2424;49.696;6.630;2023-07-29T10:51:25;21.40;99.90
4820;DHT22;2424;49.696;6.630;2023-07-29T10:56:48;21.80;99.90
4820;DHT22;2424;49.696;6.630;2023-07-29T11:02:17;22.10;99.90
4820;DHT22;2424;49.696;6.630;2023-07-29T11:07:46;22.30;99.90
4820;DHT22;2424;49.696;6.630;2023-07-29T11:13:08;22.60;99.90
4820;DHT22;2424;49.696;6.630;2023-07-29T11:18:34;22.40;99.90
4820;DHT22;2424;49.696;6.630;2023-07-29T11:23:57;22.60;99.90
4820;DHT22;2424;49.696;6.630;2023-07-29T11:29:19;22.60;99.90
4820;DHT22;2424;49.696;6.630;2023-07-29T11:34:41;22.50;99.90
4820;DHT22;2424;49.696;6.630;2023-07-29T11:40:06;22.60;99.90
4820;DHT22;2424;49.696;6.630;2023-07-29T11:45:29;22.60;99.90
4820;DHT22;2424;49.696;6.630;2023-07-29T11:50:51;23.10;99.90
4820;DHT22;2424;49.696;6.630;2023-07-29T11:56:17;23.20;99.90
4820;DHT22;2424;49.696;6.630;2023-07-29T12:01:40;23.20;99.90
4820;DHT22;2424;49.696;6.630;2023-07-29T12:07:02;23.20;99.90
4820;DHT22;2424;49.696;6.630;2023-07-29T12:12:27;23.50;99.90
4820;DHT22;2424;49.696;6.630;2023-07-29T12:17:49;23.50;99.90
4820;DHT22;2424;49.696;6.630;2023-07-29T12:23:13;23.60;99.90
4820;DHT22;2424;49.696;6.630;2023-07-29T12:28:37;24.00;99.90
4820;DHT22;2424;49.696;6.630;2023-07-29T12:34:00;24.00;99.90
4820;DHT22;2424;49.696;6.630;2023-07-29T12:39:25;23.80;99.90
4820;DHT22;2424;49.696;6.630;2023-07-29T12:44:49;23.70;99.90
4820;DHT22;2424;49.696;6.630;2023-07-29T12:50:11;23.50;99.90
4820;DHT22;2424;49.696;6.630;2023-07-29T12:55:33;23.50;99.90
4820;DHT22;2424;49.696;6.630;2023-07-29T13:00:56;23.70;99.90
4820;DHT22;2424;49.696;6.630;2023-07-29T13:06:18;23.40;99.90
4820;DHT22;2424;49.696;6.630;2023-07-29T13:11:40;23.30;99.90
4820;DHT22;2424;49.696;6.630;2023-07-29T13:17:04;23.90;99.90
4820;DHT22;2424;49.696;6.630;2023-07-29T13:22:26;23.80;99.90
4820;DHT22;2424;49.696;6.630;2023-07-29T13:27:48;23.90;99.90
4820;DHT22;2424;49.696;6.630;2023-07-29T13:33:11;23.90;99.90
4820;DHT22;2424;49.696;6.630;2023-07-29T13:38:33;24.00;99.90
4820;DHT22;2424;49.696;6.630;2023-07-29T13:43:55;23.90;99.90
4820;DHT22;2424;49.696;6.630;2023-07-29T13:49:19;23.90;99.90
4820;DHT22;2424;49.696;6.630;2023-07-29T13:54:41;24.00;99.90
4820;DHT22;2424;49.696;6.630;2023-07-29T14:00:03;23.90;99.90
4820;DHT22;2424;49.696;6.630;2023-07-29T14:05:27;23.80;99.90
4820;DHT22;2424;49.696;6.630;2023-07-29T14:10:49;23.90;99.90
4820;DHT22;2424;49.696;6.630;2023-07-29T14:16:11;24.10;99.90
4820;DHT22;2424;49.696;6.630;2023-07-29T14:21:34;24.00;99.90
4820;DHT22;2424;49.696;6.630;2023-07-29T14:26:56;24.40;99.90
4820;DHT22;2424;49.696;6.630;2023-07-29T14:32:18;24.70;99.90
4820;DHT22;2424;49.696;6.630;2023-07-29T14:37:42;24.50;99.90
4820;DHT22;2424;49.696;6.630;2023-07-29T14:43:04;24.40;99.90
4820;DHT22;2424;49.696;6.630;2023-07-29T14:48:26;24.50;99.90
4820;DHT22;2424;49.696;6.630;2023-07-29T14:53:49;24.40;99.90
4820;DHT22;2424;49.696;6.630;2023-07-29T14:59:11;24.40;99.90
4820;DHT22;2424;49.696;6.630;2023-07-29T15:04:33;24.10;99.90
4820;DHT22;2424;49.696;6.630;2023-07-29T15:09:56;24.30;99.90
4820;DHT22;2424;49.696;6.630;2023-07-29T15:15:19;24.10;99.90
4820;DHT22;2424;49.696;6.630;2023-07-29T15:20:40;24.20;99.90
4820;DHT22;2424;49.696;6.630;2023-07-29T15:26:04;24.00;99.90
4820;DHT22;2424;49.696;6.630;2023-07-29T15:31:26;23.90;99.90
4820;DHT22;2424;49.696;6.630;2023-07-29T15:36:48;24.40;99.90
4820;DHT22;2424;49.696;6.630;2023-07-29T15:42:12;24.70;99.90
4820;DHT22;2424;49.696;6.630;2023-07-29T15:47:34;24.70;99.90
4820;DHT22;2424;49.696;6.630;2023-07-29T15:52:56;24.80;99.90
4820;DHT22;2424;49.696;6.630;2023-07-29T15:58:19;25.10;99.90
4820;DHT22;2424;49.696;6.630;2023-07-29T16:03:41;24.60;99.90
4820;DHT22;2424;49.696;6.630;2023-07-29T16:09:03;24.80;99.90
4820;DHT22;2424;49.696;6.630;2023-07-29T16:14:28;24.90;99.90
4820;DHT22;2424;49.696;6.630;2023-07-29T16:19:54;24.90;99.90
4820;DHT22;2424;49.696;6.630;2023-07-29T16:25:16;25.00;99.90
4820;DHT22;2424;49.696;6.630;2023-07-29T16:30:40;24.50;99.90
4820;DHT22;2424;49.696;6.630;2023-07-29T16:36:02;24.20;99.90
4820;DHT22;2424;49.696;6.630;2023-07-29T16:41:24;24.20;99.90
4820;DHT22;2424;49.696;6.630;2023-07-29T16:46:47;24.00;99.90
4820;DHT22;2424;49.696;6.630;2023-07-29T16:52:09;23.90;99.90
4820;DHT22;2424;49.696;6.630;2023-07-29T16:57:31;23.80;99.90
4820;DHT22;2424;49.696;6.630;2023-07-29T17:02:54;23.80;99.90
4820;DHT22;2424;49.696;6.630;2023-07-29T17:08:16;23.70;99.90
4820;DHT22;2424;49.696;6.630;2023-07-29T17:13:38;23.70;99.90
4820;DHT22;2424;49.696;6.630;2023-07-29T17:19:01;23.70;99.90
4820;DHT22;2424;49.696;6.630;2023-07-29T17:24:23;23.50;99.90
4820;DHT22;2424;49.696;6.630;2023-07-29T17:29:45;23.30;99.90
4820;DHT22;2424;49.696;6.630;2023-07-29T17:35:09;23.20;99.90
4820;DHT22;2424;49.696;6.630;2023-07-29T17:40:31;23.00;99.90
4820;DHT22;2424;49.696;6.630;2023-07-29T17:45:53;23.00;99.90
4820;DHT22;2424;49.696;6.630;2023-07-29T17:51:16;22.80;99.90
4820;DHT22;2424;49.696;6.630;2023-07-29T17:56:38;22.70;99.90
4820;DHT22;2424;49.696;6.630;2023-07-29T18:02:00;22.70;99.90
4820;DHT22;2424;49.696;6.630;2023-07-29T18:07:23;22.60;99.90
4820;DHT22;2424;49.696;6.630;2023-07-29T18:12:45;22.50;99.90
4820;DHT22;2424;49.696;6.630;2023-07-29T18:18:07;22.50;99.90
4820;DHT22;2424;49.696;6.630;2023-07-29T18:23:30;22.30;99.90
4820;DHT22;2424;49.696;6.630;2023-07-29T18:28:52;22.30;99.90
4820;DHT22;2424;49.696;6.630;2023-07-29T18:34:14;22.10;99.90
4820;DHT22;2424;49.696;6.630;2023-07-29T18:39:37;22.00;99.90
4820;DHT22;2424;49.696;6.630;2023-07-29T18:44:59;22.00;99.90
4820;DHT22;2424;49.696;6.630;2023-07-29T18:50:21;21.90;99.90
4820;DHT22;2424;49.696;6.630;2023-07-29T18:55:45;21.90;99.90
4820;DHT22;2424;49.696;6.630;2023-07-29T19:01:07;21.80;99.90
4820;DHT22;2424;49.696;6.630;2023-07-29T19:06:30;21.80;99.90
4820;DHT22;2424;49.696;6.630;2023-07-29T19:11:54;21.70;99.90
4820;DHT22;2424;49.696;6.630;2023-07-29T19:17:16;21.70;99.90
4820;DHT22;2424;49.696;6.630;2023-07-29T19:22:38;21.50;99.90
4820;DHT22;2424;49.696;6.630;2023-07-29T19:28:01;21.20;99.90
4820;DHT22;2424;49.696;6.630;2023-07-29T19:33:23;21.00;99.90
4820;DHT22;2424;49.696;6.630;2023-07-29T19:38:45;20.80;99.90
4820;DHT22;2424;49.696;6.630;2023-07-29T19:44:08;20.80;99.90
4820;DHT22;2424;49.696;6.630;2023-07-29T19:49:30;20.70;99.90
4820;DHT22;2424;49.696;6.630;2023-07-29T19:54:52;20.60;99.90
4820;DHT22;2424;49.696;6.630;2023-07-29T20:00:15;20.30;99.90
4820;DHT22;2424;49.696;6.630;2023-07-29T20:05:40;20.10;99.90
4820;DHT22;2424;49.696;6.630;2023-07-29T20:11:02;20.10;99.90
4820;DHT22;2424;49.696;6.630;2023-07-29T20:16:25;20.20;99.90
4820;DHT22;2424;49.696;6.630;2023-07-29T20:21:48;20.20;99.90
4820;DHT22;2424;49.696;6.630;2023-07-29T20:27:10;20.00;99.90
4820;DHT22;2424;49.696;6.630;2023-07-29T20:32:34;19.70;99.90
4820;DHT22;2424;49.696;6.630;2023-07-29T20:37:57;19.70;99.90
4820;DHT22;2424;49.696;6.630;2023-07-29T20:43:19;19.70;99.90
4820;DHT22;2424;49.696;6.630;2023-07-29T20:48:42;19.70;99.90
4820;DHT22;2424;49.696;6.630;2023-07-29T20:54:04;19.60;99.90
4820;DHT22;2424;49.696;6.630;2023-07-29T20:59:26;19.60;99.90
4820;DHT22;2424;49.696;6.630;2023-07-29T21:04:49;19.60;99.90
4820;DHT22;2424;49.696;6.630;2023-07-29T21:10:11;19.60;99.90
4820;DHT22;2424;49.696;6.630;2023-07-29T21:15:33;19.50;99.90
4820;DHT22;2424;49.696;6.630;2023-07-29T21:20:56;19.50;99.90
4820;DHT22;2424;49.696;6.630;2023-07-29T21:26:18;19.50;99.90
4820;DHT22;2424;49.696;6.630;2023-07-29T21:31:40;19.40;99.90
4820;DHT22;2424;49.696;6.630;2023-07-29T21:37:04;19.40;99.90
4820;DHT22;2424;49.696;6.630;2023-07-29T21:42:26;19.40;99.90
4820;DHT22;2424;49.696;6.630;2023-07-29T21:47:48;19.40;99.90
4820;DHT22;2424;49.696;6.630;2023-07-29T21:53:11;19.40;99.90
4820;DHT22;2424;49.696;6.630;2023-07-29T21:58:33;19.40;99.90
4820;DHT22;2424;49.696;6.630;2023-07-29T22:03:55;19.30;99.90
4820;DHT22;2424;49.696;6.630;2023-07-29T22:09:19;19.30;99.90
4820;DHT22;2424;49.696;6.630;2023-07-29T22:14:42;19.20;99.90
4820;DHT22;2424;49.696;6.630;2023-07-29T22:20:06;19.20;99.90
4820;DHT22;2424;49.696;6.630;2023-07-29T22:25:31;19.20;99.90
4820;DHT22;2424;49.696;6.630;2023-07-29T22:30:53;19.10;99.90
4820;DHT22;2424;49.696;6.630;2023-07-29T22:36:15;19.20;99.90
4820;DHT22;2424;49.696;6.630;2023-07-29T22:41:38;19.20;99.90
4820;DHT22;2424;49.696;6.630;2023-07-29T22:47:00;19.10;99.90
4820;DHT22;2424;49.696;6.630;2023-07-29T22:52:22;19.10;99.90
4820;DHT22;2424;49.696;6.630;2023-07-29T22:57:46;19.10;99.90
4820;DHT22;2424;49.696;6.630;2023-07-29T23:03:07;19.10;99.90
4820;DHT22;2424;49.696;6.630;2023-07-29T23:08:29;19.00;99.90
4820;DHT22;2424;49.696;6.630;2023-07-29T23:13:53;18.90;99.90
4820;DHT22;2424;49.696;6.630;2023-07-29T23:19:14;18.80;99.90
4820;DHT22;2424;49.696;6.630;2023-07-29T23:24:37;18.90;99.90
4820;DHT22;2424;49.696;6.630;2023-07-29T23:30:00;18.80;99.90
4820;DHT22;2424;49.696;6.630;2023-07-29T23:35:23;18.80;99.90
4820;DHT22;2424;49.696;6.630;2023-07-29T23:40:45;18.80;99.90
4820;DHT22;2424;49.696;6.630;2023-07-29T23:46:09;18.80;99.90
4820;DHT22;2424;49.696;6.630;2023-07-29T23:51:31;18.80;99.90
4820;DHT22;2424;49.696;6.630;2023-07-29T23:56:53;18.80;99.90
